createdAt,value
2018-02-15T00:02:15.598Z,16.73
2018-02-15T00:04:43.102Z,17.63
2018-02-15T00:07:10.586Z,12.17
2018-02-15T00:09:38.845Z,15.63
2018-02-15T00:12:07.091Z,12.57
2018-02-15T00:14:34.572Z,16.77
2018-02-15T00:17:02.814Z,15.37
2018-02-15T00:19:30.301Z,16.07
2018-02-15T00:21:57.766Z,13.43
2018-02-15T00:24:26.041Z,15.77
2018-02-15T00:26:54.302Z,12.47
2018-02-15T00:29:22.574Z,13.50
2018-02-15T00:31:50.054Z,13.23
2018-02-15T00:34:17.544Z,15.57
2018-02-15T00:36:45.025Z,14.80
2018-02-15T00:39:12.509Z,15.17
2018-02-15T00:41:40.773Z,14.40
2018-02-15T00:44:08.258Z,14.63
2018-02-15T00:46:35.771Z,17.00
2018-02-15T00:49:03.257Z,15.27
2018-02-15T00:51:30.742Z,14.60
2018-02-15T00:53:58.214Z,16.20
2018-02-15T00:56:25.695Z,13.10
2018-02-15T00:58:53.160Z,10.20
2018-02-15T01:01:20.634Z,13.37
2018-02-15T01:03:48.870Z,12.20
2018-02-15T01:06:16.363Z,17.10
2018-02-15T01:08:43.837Z,10.53
2018-02-15T01:11:11.326Z,13.67
2018-02-15T01:13:38.799Z,14.63
2018-02-15T01:16:07.252Z,14.17
2018-02-15T01:18:34.731Z,10.17
2018-02-15T01:21:02.208Z,12.17
2018-02-15T01:23:29.690Z,14.57
2018-02-15T01:25:57.956Z,14.70
2018-02-15T01:28:26.187Z,14.07
2018-02-15T01:30:53.655Z,12.70
2018-02-15T01:33:21.132Z,11.17
2018-02-15T01:35:48.606Z,13.83
2018-02-15T01:38:16.107Z,12.63
2018-02-15T01:40:43.574Z,15.50
2018-02-15T01:43:11.086Z,13.53
2018-02-15T01:45:38.582Z,10.70
2018-02-15T01:48:06.823Z,12.67
2018-02-15T01:50:34.314Z,12.17
2018-02-15T01:53:01.787Z,14.27
2018-02-15T01:55:29.272Z,13.60
2018-02-15T01:57:57.510Z,11.13
2018-02-15T02:00:24.978Z,11.87
2018-02-15T02:02:52.463Z,11.60
2018-02-15T02:05:20.702Z,11.63
2018-02-15T02:07:48.186Z,18.37
2018-02-15T02:10:15.694Z,20.67
2018-02-15T02:12:43.181Z,17.23
2018-02-15T02:15:10.633Z,11.97
2018-02-15T02:17:38.114Z,13.10
2018-02-15T02:20:06.366Z,12.27
2018-02-15T02:22:33.836Z,12.80
2018-02-15T02:25:02.125Z,14.30
2018-02-15T02:27:30.358Z,12.33
2018-02-15T02:29:57.847Z,10.83
2018-02-15T02:32:26.079Z,13.63
2018-02-15T02:34:53.552Z,13.67
2018-02-15T02:37:21.023Z,13.97
2018-02-15T02:39:48.494Z,13.37
2018-02-15T02:42:16.759Z,13.63
2018-02-15T02:44:45.035Z,12.80
2018-02-15T02:47:13.298Z,15.87
2018-02-15T02:49:40.794Z,16.50
2018-02-15T02:52:08.260Z,13.87
2018-02-15T02:54:35.743Z,16.97
2018-02-15T02:57:03.228Z,11.37
2018-02-15T02:59:30.692Z,13.67
2018-02-15T03:01:58.948Z,16.73
2018-02-15T03:04:26.446Z,12.20
2018-02-15T03:06:53.939Z,17.47
2018-02-15T03:09:21.418Z,10.80
2018-02-15T03:11:48.915Z,12.87
2018-02-15T03:14:16.377Z,15.73
2018-02-15T03:16:43.862Z,9.67
2018-02-15T03:19:11.326Z,12.77
2018-02-15T03:21:38.820Z,14.43
2018-02-15T03:24:07.065Z,14.27
2018-02-15T03:26:34.549Z,17.43
2018-02-15T03:29:05.708Z,14.77
2018-02-15T03:31:33.183Z,16.57
2018-02-15T03:34:00.674Z,12.57
2018-02-15T03:36:28.152Z,15.73
2018-02-15T03:38:56.402Z,16.40
2018-02-15T03:41:23.886Z,18.37
2018-02-15T03:43:52.138Z,16.50
2018-02-15T03:46:19.627Z,13.70
2018-02-15T03:48:47.883Z,16.67
2018-02-15T03:51:15.347Z,14.60
2018-02-15T03:53:43.703Z,19.77
2018-02-15T03:56:11.213Z,14.97
2018-02-15T03:58:38.702Z,19.57
2018-02-15T04:01:06.210Z,24.53
2018-02-15T04:03:33.693Z,23.67
2018-02-15T04:06:01.199Z,17.80
2018-02-15T04:08:29.439Z,18.07
2018-02-15T04:10:56.926Z,18.53
2018-02-15T04:13:25.650Z,24.63
2018-02-15T04:15:53.126Z,26.83
2018-02-15T04:18:20.602Z,20.90
2018-02-15T04:20:48.111Z,19.93
2018-02-15T04:23:15.673Z,25.67
2018-02-15T04:25:43.177Z,26.17
2018-02-15T04:28:10.645Z,31.50
2018-02-15T04:30:38.156Z,34.07
2018-02-15T04:33:05.614Z,31.23
2018-02-15T04:35:33.135Z,30.70
2018-02-15T04:38:01.382Z,38.27
2018-02-15T04:40:28.870Z,34.87
2018-02-15T04:42:57.119Z,36.47
2018-02-15T04:45:25.715Z,34.20
2018-02-15T04:47:53.366Z,34.13
2018-02-15T04:50:23.420Z,39.07
2018-02-15T04:52:54.633Z,36.50
2018-02-15T04:55:24.039Z,25.50
2018-02-15T04:57:52.294Z,33.57
2018-02-15T05:00:19.779Z,42.20
2018-02-15T05:02:48.496Z,42.20
2018-02-15T05:05:17.131Z,38.33
2018-02-15T05:07:45.403Z,38.90
2018-02-15T05:10:13.968Z,29.30
2018-02-15T05:12:41.441Z,32.70
2018-02-15T05:15:09.680Z,36.20
2018-02-15T05:17:37.172Z,41.50
2018-02-15T05:20:05.410Z,35.00
2018-02-15T05:22:32.992Z,26.53
2018-02-15T05:25:01.443Z,29.77
2018-02-15T05:27:30.302Z,33.73
2018-02-15T05:29:58.979Z,34.10
2018-02-15T05:32:26.564Z,31.83
2018-02-15T05:34:56.664Z,30.00
2018-02-15T05:37:24.200Z,35.53
2018-02-15T05:39:52.941Z,32.43
2018-02-15T05:42:23.999Z,41.93
2018-02-15T05:44:52.700Z,35.20
2018-02-15T05:47:21.596Z,42.70
2018-02-15T05:49:49.122Z,31.13
2018-02-15T05:52:16.600Z,37.93
2018-02-15T05:54:44.891Z,35.70
2018-02-15T05:57:13.283Z,30.97
2018-02-15T05:59:40.789Z,28.80
2018-02-15T06:02:08.330Z,32.17
2018-02-15T06:04:35.839Z,40.60
2018-02-15T06:07:04.083Z,44.20
2018-02-15T06:09:32.409Z,35.40
2018-02-15T06:12:00.601Z,36.80
2018-02-15T06:14:28.129Z,43.37
2018-02-15T06:16:55.611Z,42.80
2018-02-15T06:19:23.185Z,28.63
2018-02-15T06:21:50.690Z,35.87
2018-02-15T06:24:19.035Z,39.50
2018-02-15T06:26:46.628Z,28.17
2018-02-15T06:29:14.878Z,32.27
2018-02-15T06:31:43.855Z,36.17
2018-02-15T06:34:11.338Z,33.87
2018-02-15T06:36:39.578Z,37.60
2018-02-15T06:39:07.088Z,28.03
2018-02-15T06:41:34.632Z,40.10
2018-02-15T06:44:02.119Z,22.53
2018-02-15T06:46:29.594Z,32.87
2018-02-15T06:48:57.069Z,32.83
2018-02-15T06:51:24.566Z,37.57
2018-02-15T06:53:52.047Z,37.43
2018-02-15T06:56:19.538Z,17.83
2018-02-15T06:58:47.029Z,22.20
2018-02-15T07:01:15.293Z,34.93
2018-02-15T07:03:43.527Z,28.87
2018-02-15T07:06:11.006Z,33.33
2018-02-15T07:08:38.576Z,31.27
2018-02-15T07:11:06.826Z,25.10
2018-02-15T07:13:34.316Z,25.77
2018-02-15T07:16:02.565Z,27.03
2018-02-15T07:18:30.066Z,30.67
2018-02-15T07:20:57.537Z,33.40
2018-02-15T07:23:25.027Z,32.20
2018-02-15T07:25:52.505Z,26.50
2018-02-15T07:28:20.761Z,23.23
2018-02-15T07:30:48.322Z,39.77
2018-02-15T07:33:15.821Z,29.60
2018-02-15T07:35:44.082Z,36.63
2018-02-15T07:38:12.345Z,22.67
2018-02-15T07:40:40.594Z,22.23
2018-02-15T07:43:08.152Z,23.87
2018-02-15T07:45:35.645Z,27.27
2018-02-15T07:48:03.120Z,29.37
2018-02-15T07:50:30.602Z,31.93
2018-02-15T07:52:58.081Z,27.30
2018-02-15T07:55:25.568Z,25.53
2018-02-15T07:57:53.800Z,28.10
2018-02-15T08:00:21.275Z,30.63
2018-02-15T08:02:48.783Z,24.10
2018-02-15T08:05:16.291Z,28.57
2018-02-15T08:07:43.750Z,25.60
2018-02-15T08:10:11.220Z,26.87
2018-02-15T08:12:39.491Z,23.30
2018-02-15T08:15:07.758Z,32.60
2018-02-15T08:17:36.029Z,24.63
2018-02-15T08:20:03.499Z,25.97
2018-02-15T08:22:31.767Z,22.17
2018-02-15T08:25:00.020Z,20.00
2018-02-15T08:27:27.511Z,25.90
2018-02-15T08:29:55.734Z,31.67
2018-02-15T08:32:23.231Z,24.50
2018-02-15T08:34:51.469Z,30.33
2018-02-15T08:37:19.283Z,30.93
2018-02-15T08:39:47.793Z,27.67
2018-02-15T08:42:15.276Z,20.37
2018-02-15T08:44:42.777Z,24.13
2018-02-15T08:47:10.291Z,26.97
2018-02-15T08:49:37.778Z,25.43
2018-02-15T08:52:06.354Z,30.80
2018-02-15T08:54:34.617Z,24.10
2018-02-15T08:57:02.098Z,23.10
2018-02-15T08:59:29.575Z,30.13
2018-02-15T09:01:57.046Z,31.67
2018-02-15T09:04:25.434Z,30.40
2018-02-15T09:06:52.903Z,31.07
2018-02-15T09:09:20.400Z,32.60
2018-02-15T09:11:48.623Z,24.73
2018-02-15T09:14:16.112Z,32.53
2018-02-15T09:16:43.580Z,34.10
2018-02-15T09:19:11.930Z,33.90
2018-02-15T09:21:39.406Z,28.87
2018-02-15T09:24:07.728Z,32.40
2018-02-15T09:26:35.218Z,25.67
2018-02-15T09:29:02.998Z,36.27
2018-02-15T09:31:31.589Z,25.47
2018-02-15T09:33:59.189Z,29.87
2018-02-15T09:36:26.662Z,32.03
2018-02-15T09:38:54.186Z,39.23
2018-02-15T09:41:21.658Z,34.97
2018-02-15T09:43:49.165Z,30.03
2018-02-15T09:46:17.765Z,35.60
2018-02-15T09:48:45.994Z,33.70
2018-02-15T09:51:13.486Z,31.83
2018-02-15T09:53:41.746Z,30.83
2018-02-15T09:56:09.225Z,36.40
2018-02-15T09:58:37.478Z,27.33
2018-02-15T10:01:05.732Z,32.97
2018-02-15T10:03:33.214Z,31.53
2018-02-15T10:06:00.700Z,27.03
2018-02-15T10:08:28.178Z,37.53
2018-02-15T10:10:55.665Z,32.60
2018-02-15T10:13:24.424Z,33.83
2018-02-15T10:15:51.924Z,35.17
2018-02-15T10:18:20.240Z,36.70
2018-02-15T10:20:47.748Z,39.00
2018-02-15T10:23:15.251Z,37.63
2018-02-15T10:25:42.733Z,32.00
2018-02-15T10:28:10.373Z,41.50
2018-02-15T10:30:37.849Z,42.23
2018-02-15T10:33:05.389Z,29.60
2018-02-15T10:35:32.872Z,43.90
2018-02-15T10:38:00.355Z,44.03
2018-02-15T10:40:28.615Z,35.10
2018-02-15T10:42:56.102Z,41.70
2018-02-15T10:45:24.388Z,46.93
2018-02-15T10:47:51.876Z,32.17
2018-02-15T10:50:19.394Z,35.33
2018-02-15T10:52:46.871Z,41.13
2018-02-15T10:55:14.403Z,43.13
2018-02-15T10:57:42.646Z,45.33
2018-02-15T11:00:10.134Z,38.17
2018-02-15T11:02:38.434Z,40.07
2018-02-15T11:05:11.702Z,46.43
2018-02-15T11:07:39.946Z,40.53
2018-02-15T11:10:07.466Z,36.67
2018-02-15T11:12:35.679Z,36.70
2018-02-15T11:15:03.167Z,35.73
2018-02-15T11:17:30.632Z,33.37
2018-02-15T11:19:58.269Z,31.57
2018-02-15T11:22:26.514Z,37.77
2018-02-15T11:24:54.021Z,35.53
2018-02-15T11:27:21.508Z,36.70
2018-02-15T11:29:48.957Z,32.90
2018-02-15T11:32:16.598Z,34.53
2018-02-15T11:34:44.068Z,33.20
2018-02-15T11:37:11.574Z,28.67
2018-02-15T11:39:39.810Z,40.80
2018-02-15T11:42:07.319Z,37.20
2018-02-15T11:44:35.563Z,33.40
2018-02-15T11:47:03.041Z,38.47
2018-02-15T11:49:31.297Z,39.37
2018-02-15T11:51:58.807Z,30.47
2018-02-15T11:54:26.289Z,36.70
2018-02-15T11:56:53.783Z,35.37
2018-02-15T11:59:22.029Z,28.10
2018-02-15T12:01:49.511Z,31.63
2018-02-15T12:04:17.779Z,31.03
2018-02-15T12:06:46.054Z,34.90
2018-02-15T12:09:14.314Z,36.73
2018-02-15T12:11:41.791Z,31.57
2018-02-15T12:14:10.039Z,27.63
2018-02-15T12:16:37.523Z,28.53
2018-02-15T12:19:05.778Z,29.73
2018-02-15T12:21:33.268Z,31.97
2018-02-15T12:24:00.774Z,30.87
2018-02-15T12:26:28.488Z,34.07
2018-02-15T12:28:55.982Z,33.23
2018-02-15T12:31:23.467Z,31.67
2018-02-15T12:33:50.982Z,29.93
2018-02-15T12:36:18.466Z,29.43
2018-02-15T12:38:45.969Z,36.27
2018-02-15T12:41:14.196Z,22.77
2018-02-15T12:43:41.712Z,30.70
2018-02-15T12:46:09.186Z,32.10
2018-02-15T12:48:36.671Z,31.27
2018-02-15T12:51:04.160Z,33.13
2018-02-15T12:53:32.441Z,31.17
2018-02-15T12:56:02.039Z,28.03
2018-02-15T12:58:30.294Z,28.37
2018-02-15T13:00:57.782Z,29.37
2018-02-15T13:03:25.271Z,29.23
2018-02-15T13:05:52.759Z,27.40
2018-02-15T13:08:20.310Z,24.47
2018-02-15T13:10:48.723Z,28.30
2018-02-15T13:13:28.937Z,27.50
2018-02-15T13:16:08.374Z,34.10
2018-02-15T13:18:36.643Z,27.17
2018-02-15T13:21:04.127Z,27.70
2018-02-15T13:23:32.377Z,23.00
2018-02-15T13:26:00.018Z,27.73
2018-02-15T13:28:38.128Z,30.33
2018-02-15T13:31:05.630Z,31.47
2018-02-15T13:33:33.162Z,27.33
2018-02-15T13:36:00.751Z,28.37
2018-02-15T13:38:28.197Z,29.10
2018-02-15T13:40:56.538Z,32.67
2018-02-15T13:43:24.010Z,27.87
2018-02-15T13:45:51.535Z,29.23
2018-02-15T13:48:19.033Z,28.40
2018-02-15T13:50:46.526Z,32.37
2018-02-15T13:53:14.006Z,31.83
2018-02-15T13:55:41.511Z,31.53
2018-02-15T13:58:09.750Z,24.40
2018-02-15T14:00:37.234Z,34.33
2018-02-15T14:03:04.727Z,34.93
2018-02-15T14:05:32.215Z,33.23
2018-02-15T14:07:59.694Z,32.03
2018-02-15T14:10:27.166Z,35.30
2018-02-15T14:12:54.653Z,33.70
2018-02-15T14:15:22.138Z,28.70
2018-02-15T14:17:49.640Z,33.30
2018-02-15T14:20:18.155Z,32.23
2018-02-15T14:22:45.643Z,32.17
2018-02-15T14:25:13.453Z,31.90
2018-02-15T14:27:41.715Z,31.60
2018-02-15T14:30:09.959Z,30.33
2018-02-15T14:32:37.443Z,30.00
2018-02-15T14:35:04.948Z,32.07
2018-02-15T14:37:32.506Z,32.97
2018-02-15T14:39:59.974Z,34.60
2018-02-15T14:42:27.475Z,32.30
2018-02-15T14:44:55.733Z,33.47
2018-02-15T14:47:23.215Z,37.80
2018-02-15T14:49:50.724Z,39.20
2018-02-15T14:52:18.206Z,28.27
2018-02-15T14:54:45.825Z,35.63
2018-02-15T14:57:13.321Z,33.47
2018-02-15T14:59:41.036Z,34.77
2018-02-15T15:02:08.521Z,33.03
2018-02-15T15:04:35.998Z,36.70
2018-02-15T15:07:06.056Z,32.67
2018-02-15T15:09:35.228Z,37.20
2018-02-15T15:12:04.012Z,44.07
2018-02-15T15:14:34.341Z,30.90
2018-02-15T15:17:02.066Z,41.17
2018-02-15T15:19:30.618Z,34.80
2018-02-15T15:21:58.924Z,40.10
2018-02-15T15:24:27.969Z,36.70
2018-02-15T15:26:56.088Z,34.00
2018-02-15T15:29:24.374Z,34.17
2018-02-15T15:31:52.572Z,33.53
2018-02-15T15:34:20.220Z,39.83
2018-02-15T15:36:47.793Z,35.70
2018-02-15T15:39:15.268Z,27.83
2018-02-15T15:41:42.833Z,37.53
2018-02-15T15:44:10.312Z,31.07
2018-02-15T15:46:37.804Z,35.07
2018-02-15T15:49:06.066Z,34.37
2018-02-15T15:51:33.594Z,41.17
2018-02-15T15:54:01.082Z,31.80
2018-02-15T15:56:28.574Z,31.00
2018-02-15T15:58:56.083Z,31.77
2018-02-15T16:01:23.588Z,32.43
2018-02-15T16:03:51.079Z,33.90
2018-02-15T16:06:18.661Z,38.77
2018-02-15T16:08:46.249Z,33.17
2018-02-15T16:11:15.837Z,34.40
2018-02-15T16:13:44.140Z,34.07
2018-02-15T16:16:11.668Z,36.70
2018-02-15T16:18:39.945Z,32.23
2018-02-15T16:21:08.254Z,33.73
2018-02-15T16:23:35.752Z,33.13
2018-02-15T16:26:03.267Z,33.30
2018-02-15T16:28:30.820Z,32.93
2018-02-15T16:30:58.372Z,36.50
2018-02-15T16:33:25.901Z,37.10
2018-02-15T16:35:53.421Z,39.80
2018-02-15T16:38:20.907Z,41.17
2018-02-15T16:40:48.415Z,35.20
2018-02-15T16:43:16.043Z,35.73
2018-02-15T16:45:44.531Z,42.03
2018-02-15T16:48:12.900Z,31.40
2018-02-15T16:50:41.153Z,42.03
2018-02-15T16:53:08.930Z,35.77
2018-02-15T16:55:36.525Z,36.57
2018-02-15T16:58:04.049Z,36.97
2018-02-15T17:00:32.596Z,32.43
2018-02-15T17:03:00.121Z,35.73
2018-02-15T17:05:27.627Z,37.90
2018-02-15T17:07:55.117Z,34.80
2018-02-15T17:10:22.712Z,32.73
2018-02-15T17:12:50.233Z,34.83
2018-02-15T17:15:17.853Z,35.87
2018-02-15T17:17:46.248Z,41.73
2018-02-15T17:20:14.511Z,45.00
2018-02-15T17:22:41.993Z,38.63
2018-02-15T17:25:09.550Z,39.50
2018-02-15T17:27:37.102Z,34.83
2018-02-15T17:30:05.483Z,52.80
2018-02-15T17:32:33.764Z,48.63
2018-02-15T17:35:01.242Z,37.23
2018-02-15T17:37:28.719Z,35.50
2018-02-15T17:39:56.216Z,27.97
2018-02-15T17:42:24.473Z,36.57
2018-02-15T17:44:53.816Z,38.23
2018-02-15T17:47:21.298Z,35.23
2018-02-15T17:49:48.814Z,28.87
2018-02-15T17:52:17.100Z,33.37
2018-02-15T17:54:44.612Z,29.73
2018-02-15T17:57:12.178Z,31.77
2018-02-15T17:59:39.672Z,30.30
2018-02-15T18:02:07.171Z,26.73
2018-02-15T18:04:34.690Z,31.03
2018-02-15T18:07:02.166Z,30.53
2018-02-15T18:09:29.731Z,31.27
2018-02-15T18:11:57.325Z,31.00
2018-02-15T18:14:24.808Z,32.93
2018-02-15T18:16:52.294Z,29.47
2018-02-15T18:19:19.811Z,27.50
2018-02-15T18:21:48.124Z,35.97
2018-02-15T18:24:15.633Z,32.87
2018-02-15T18:26:43.906Z,38.73
2018-02-15T18:29:12.151Z,36.33
2018-02-15T18:31:39.640Z,34.40
2018-02-15T18:34:07.909Z,35.80
2018-02-15T18:36:35.418Z,44.17
2018-02-15T18:39:02.885Z,48.90
2018-02-15T18:41:30.388Z,46.50
2018-02-15T18:43:59.975Z,46.23
2018-02-15T18:46:27.486Z,51.33
2018-02-15T18:48:54.987Z,75.60
2018-02-15T18:51:23.236Z,86.23
2018-02-15T18:53:52.937Z,60.97
2018-02-15T18:56:20.468Z,46.63
2018-02-15T18:58:48.250Z,47.07
2018-02-15T19:01:16.139Z,54.67
2018-02-15T19:03:43.774Z,43.30
2018-02-15T19:06:11.363Z,37.03
2018-02-15T19:08:38.843Z,37.17
2018-02-15T19:11:07.283Z,37.53
2018-02-15T19:13:34.837Z,38.00
2018-02-15T19:16:02.734Z,41.53
2018-02-15T19:18:30.219Z,37.40
2018-02-15T19:20:58.574Z,37.70
2018-02-15T19:23:26.096Z,43.03
2018-02-15T19:25:53.576Z,36.17
2018-02-15T19:28:21.149Z,36.50
2018-02-15T19:30:49.461Z,36.53
2018-02-15T19:33:18.036Z,35.57
2018-02-15T19:35:45.551Z,38.43
2018-02-15T19:38:13.039Z,42.37
2018-02-15T19:40:41.322Z,37.03
2018-02-15T19:43:08.815Z,30.77
2018-02-15T19:45:36.433Z,31.90
2018-02-15T19:48:03.922Z,31.20
2018-02-15T19:50:31.548Z,28.97
2018-02-15T19:52:59.170Z,29.13
2018-02-15T19:55:27.062Z,39.70
2018-02-15T19:57:55.310Z,32.63
2018-02-15T20:00:22.918Z,36.50
2018-02-15T20:02:50.426Z,36.20
2018-02-15T20:05:18.060Z,30.93
2018-02-15T20:07:45.571Z,34.67
2018-02-15T20:10:13.069Z,32.40
2018-02-15T20:12:40.571Z,32.30
2018-02-15T20:15:08.907Z,31.47
2018-02-15T20:17:36.673Z,37.20
2018-02-15T20:20:09.866Z,34.23
